Time;durP1;ratioP1;P1;durP2;ratioP2;P2;SDS_P1;SDS_P2;PMS_P1;PMS_P2;Temp;Humidity;BMP_temperature;BMP_pressure;BME280_temperature;BME280_humidity;BME280_pressure;Samples;Min_cycle;Max_cycle;Signal;HPM_P1;HPM_P2
2022/01/26 00:06:46;;;;;;;44.70;24.37;;;;;;;-5.97;100.00;101414.50;1656043;85;21056;-94
2022/01/26 00:09:14;;;;;;;;;;;;;;;-5.99;100.00;101410.69;1658274;86;21100;-91
2022/01/26 00:11:41;;;;;;;36.55;19.30;;;;;;;-6.01;100.00;101404.78;1655462;86;20169;-94
2022/01/26 00:14:12;;;;;;;37.25;20.15;;;;;;;-6.01;100.00;101402.25;1656314;84;21162;-95
2022/01/26 00:16:42;;;;;;;39.55;21.23;;;;;;;-6.00;100.00;101396.74;1652464;86;21043;-95
2022/01/26 00:21:54;;;;;;;33.20;18.62;;;;;;;-6.03;100.00;101389.53;1656930;85;21036;-94
2022/01/26 00:30:00;;;;;;;35.28;19.37;;;;;;;-6.11;100.00;101389.91;1636491;86;21106;-94
2022/01/26 00:40:40;;;;;;;33.80;18.32;;;;;;;-6.20;100.00;101379.30;1639278;86;21064;-95
2022/01/26 00:43:26;;;;;;;27.90;16.10;;;;;;;-6.21;100.00;101375.50;1658869;86;21012;-93
2022/01/26 00:45:39;;;;;;;28.07;15.72;;;;;;;-6.21;100.00;101366.19;1652078;86;21383;-96
2022/01/26 00:48:09;;;;;;;28.80;15.83;;;;;;;-6.19;100.00;101353.51;1685437;85;21046;-92
2022/01/26 00:50:37;;;;;;;28.15;16.42;;;;;;;-6.14;100.00;101361.15;1685131;85;21062;-96
2022/01/26 00:53:06;;;;;;;29.15;15.32;;;;;;;-6.12;100.00;101358.21;1663304;85;21191;-96
2022/01/26 00:55:34;;;;;;;28.75;16.27;;;;;;;-6.10;100.00;101348.50;1685982;85;21453;-95
2022/01/26 00:58:01;;;;;;;29.30;17.07;;;;;;;-6.07;100.00;101347.66;1685590;85;21033;-95
2022/01/26 01:00:29;;;;;;;28.62;16.40;;;;;;;-6.03;100.00;101340.08;1685689;85;21101;-94
2022/01/26 01:02:57;;;;;;;31.00;17.73;;;;;;;-5.99;100.00;101337.58;1686854;85;21465;-93
2022/01/26 01:05:32;;;;;;;33.98;18.27;;;;;;;-5.94;100.00;101334.59;1685376;85;21154;-94
2022/01/26 01:08:03;;;;;;;32.65;17.42;;;;;;;-5.89;100.00;101336.32;1685943;85;21105;-95
2022/01/26 01:10:25;;;;;;;35.58;19.45;;;;;;;-5.84;100.00;101330.00;1685901;85;21066;-93
2022/01/26 01:12:56;;;;;;;38.63;20.65;;;;;;;-5.79;100.00;101328.75;1685675;85;21543;-91
2022/01/26 01:15:24;;;;;;;42.43;21.73;;;;;;;-5.75;100.00;101331.31;1685751;85;21081;-96
2022/01/26 01:17:57;;;;;;;42.05;23.35;;;;;;;-5.72;100.00;101326.23;1686370;85;21187;-96
2022/01/26 01:23:06;;;;;;;39.45;22.05;;;;;;;-5.67;100.00;101332.59;1686557;84;21042;-96
2022/01/26 01:30:46;;;;;;;38.88;19.87;;;;;;;-5.70;100.00;101330.89;1617871;87;21187;-96
2022/01/26 01:33:17;;;;;;;40.20;21.57;;;;;;;-5.71;100.00;101329.63;1627593;84;21584;-91
2022/01/26 01:35:43;;;;;;;37.98;20.90;;;;;;;-5.70;100.00;101323.72;1657273;85;21106;-96
2022/01/26 01:38:15;;;;;;;37.33;18.95;;;;;;;-5.69;100.00;101321.61;1656430;84;21018;-96
2022/01/26 01:40:44;;;;;;;37.83;20.97;;;;;;;-5.69;100.00;101319.07;1653507;84;21181;-94
2022/01/26 01:43:13;;;;;;;36.55;20.20;;;;;;;-5.70;100.00;101313.13;1654815;86;21174;-95
2022/01/26 01:45:51;;;;;;;39.45;20.27;;;;;;;-5.68;100.00;101314.39;1657446;84;21038;-95
2022/01/26 01:48:26;;;;;;;42.88;21.90;;;;;;;-5.67;100.00;101307.22;1634027;86;21078;-96
2022/01/26 01:50:55;;;;;;;40.55;21.37;;;;;;;-5.66;100.00;101301.30;1653894;85;21308;-93
2022/01/26 01:53:35;;;;;;;40.00;20.72;;;;;;;-5.63;100.00;101309.34;1631700;85;21046;-94
2022/01/26 01:56:00;;;;;;;39.85;20.40;;;;;;;-5.63;100.00;101303.86;1653599;84;21804;-95
2022/01/26 01:58:28;;;;;;;37.05;20.10;;;;;;;-5.61;100.00;101303.86;1632987;86;21090;-94
2022/01/26 02:00:56;;;;;;;40.28;21.75;;;;;;;-5.60;100.00;101300.48;1655919;85;21578;-94
2022/01/26 02:03:25;;;;;;;37.78;21.42;;;;;;;-5.60;100.00;101301.75;1642363;85;21544;-93
2022/01/26 02:05:52;;;;;;;40.70;22.48;;;;;;;-5.60;100.00;101295.41;1656694;86;21562;-93
2022/01/26 02:08:20;;;;;;;39.58;22.60;;;;;;;-5.60;100.00;101296.67;1661649;85;21177;-96
2022/01/26 02:10:47;;;;;;;42.03;22.40;;;;;;;-5.60;100.00;101303.84;1672571;85;21082;-96
2022/01/26 02:13:26;;;;;;;44.48;24.27;;;;;;;-5.62;100.00;101303.42;1646059;85;21030;-96
2022/01/26 02:18:37;;;;;;;;;;;;;;;-5.66;100.00;101305.11;1675978;85;21066;-93
2022/01/26 02:56:25;;;;;;;45.05;24.67;;;;;;;-5.86;100.00;101289.81;1617096;86;21049;-94
2022/01/26 02:58:56;;;;;;;50.85;28.98;;;;;;;-5.84;100.00;101293.22;1681852;84;21062;-94
2022/01/26 03:04:02;;;;;;;56.85;30.08;;;;;;;-5.81;100.00;101288.16;1669222;85;21016;-96
2022/01/26 03:06:28;;;;;;;52.17;26.87;;;;;;;-5.79;100.00;101285.63;1665852;85;21086;-91
2022/01/26 03:08:57;;;;;;;50.05;27.13;;;;;;;-5.79;100.00;101285.19;1663944;85;21054;-95
2022/01/26 03:11:19;;;;;;;46.73;26.65;;;;;;;-5.78;100.00;101284.34;1663381;84;21007;-93
2022/01/26 03:13:55;;;;;;;55.28;29.98;;;;;;;-5.75;100.00;101285.64;1684886;84;21136;-94
2022/01/26 03:16:34;;;;;;;51.53;29.10;;;;;;;-5.73;100.00;101282.66;1661629;85;21083;-92
2022/01/26 03:21:30;;;;;;;52.40;27.52;;;;;;;-5.70;100.00;101283.95;1684853;84;21042;-92
2022/01/26 03:34:56;;;;;;;39.70;22.15;;;;;;;-5.61;100.00;101269.59;1651113;85;21080;-91
2022/01/26 03:37:31;;;;;;;36.77;21.15;;;;;;;-5.64;100.00;101265.36;1647399;86;21112;-95
2022/01/26 03:39:52;;;;;;;30.82;18.57;;;;;;;-5.67;100.00;101267.05;1662230;85;21656;-96
2022/01/26 03:42:19;;;;;;;39.95;20.60;;;;;;;-5.74;100.00;101268.71;1686840;84;21208;-95
2022/01/26 03:44:46;;;;;;;37.03;22.60;;;;;;;-5.84;100.00;101264.04;1686432;85;21090;-95
2022/01/26 03:47:15;;;;;;;34.65;19.25;;;;;;;-5.93;100.00;101266.55;1687224;85;21474;-93
2022/01/26 03:49:42;;;;;;;31.50;18.60;;;;;;;-5.99;100.00;101264.85;1686378;85;21524;-95
2022/01/26 03:52:11;;;;;;;31.42;18.15;;;;;;;-6.05;100.00;101262.30;1687108;84;21139;-96
2022/01/26 03:54:39;;;;;;;33.15;18.23;;;;;;;-6.12;100.00;101260.15;1655637;85;21035;-96
2022/01/26 03:57:06;;;;;;;32.25;18.30;;;;;;;-6.14;100.00;101255.52;1658562;86;21529;-96
2022/01/26 03:59:34;;;;;;;30.72;17.48;;;;;;;-6.12;100.00;101256.34;1639031;86;21054;-94
2022/01/26 04:02:01;;;;;;;32.13;18.98;;;;;;;-6.09;100.00;101258.91;1679582;85;21073;-96
2022/01/26 04:04:37;;;;;;;36.88;19.95;;;;;;;-6.06;100.00;101255.53;1685158;85;21153;-96
2022/01/26 04:07:01;;;;;;;30.25;18.12;;;;;;;-6.05;100.00;101255.96;1682079;85;21058;-96
2022/01/26 04:09:28;;;;;;;29.05;18.02;;;;;;;-6.08;100.00;101245.80;1686619;85;21540;-94
2022/01/26 04:11:55;;;;;;;41.88;20.43;;;;;;;-6.08;100.00;101245.39;1687976;85;21043;-92
2022/01/26 04:14:28;;;;;;;33.45;18.73;;;;;;;-6.09;100.00;101246.66;1686839;84;21062;-94
2022/01/26 04:16:55;;;;;;;36.20;20.17;;;;;;;-6.09;100.00;101250.03;1653125;85;21834;-94
2022/01/26 04:19:24;;;;;;;29.07;17.37;;;;;;;-6.08;100.00;101248.33;1667331;84;21026;-95
2022/01/26 04:24:24;;;;;;;32.53;18.67;;;;;;;-6.07;100.00;101250.03;1650540;86;21050;-91
2022/01/26 04:26:57;;;;;;;32.38;16.75;;;;;;;-6.07;100.00;101251.30;1658716;86;21095;-91
2022/01/26 04:29:25;;;;;;;36.75;19.85;;;;;;;-6.08;100.00;101254.67;1675232;85;21135;-94
2022/01/26 04:31:48;;;;;;;35.35;20.57;;;;;;;-6.08;100.00;101250.46;1682548;85;21148;-94
2022/01/26 04:34:20;;;;;;;35.98;17.90;;;;;;;-6.08;100.00;101259.34;1686097;85;22143;-86
2022/01/26 04:39:55;;;;;;;35.75;20.17;;;;;;;-5.71;100.00;101254.34;1685697;83;21074;-88
2022/01/26 04:42:32;;;;;;;54.45;21.12;;;;;;;-5.53;100.00;101251.86;1686618;84;21175;-93
2022/01/26 04:44:57;;;;;;;43.38;21.35;;;;;;;-5.50;100.00;101252.71;1663925;83;21058;-94
2022/01/26 04:47:19;;;;;;;39.05;21.35;;;;;;;-5.46;100.00;101245.95;1663873;85;21030;-92
2022/01/26 04:49:48;;;;;;;37.53;21.17;;;;;;;-5.53;100.00;101247.62;1685268;85;21031;-93
2022/01/26 04:52:17;;;;;;;44.80;21.77;;;;;;;-5.60;100.00;101249.72;1670965;84;20976;-91
2022/01/26 04:54:44;;;;;;;40.30;22.73;;;;;;;-5.65;100.00;101256.48;1672918;85;21031;-92
2022/01/26 04:57:11;;;;;;;41.53;21.80;;;;;;;-5.71;100.00;101248.00;1653473;85;21524;-90
2022/01/26 04:59:38;;;;;;;50.60;25.12;;;;;;;-5.82;100.00;101248.81;1634630;86;21041;-90
2022/01/26 05:02:05;;;;;;;50.55;25.92;;;;;;;-5.83;100.00;101250.92;1634279;86;21093;-91
2022/01/26 05:04:32;;;;;;;48.63;24.70;;;;;;;-5.78;100.00;101246.73;1652633;85;21031;-93
2022/01/26 05:07:00;;;;;;;45.45;24.63;;;;;;;-5.83;100.00;101248.38;1673539;84;21625;-93
2022/01/26 05:09:27;;;;;;;42.73;22.95;;;;;;;-5.95;100.00;101242.85;1673902;85;21070;-94
2022/01/26 05:11:55;;;;;;;44.80;24.35;;;;;;;-6.06;100.00;101241.18;1672826;84;21054;-94
2022/01/26 05:14:23;;;;;;;44.05;23.55;;;;;;;-6.15;100.00;101246.21;1654726;85;21077;-90
2022/01/26 05:16:50;;;;;;;43.45;22.00;;;;;;;-6.23;100.00;101246.16;1656061;85;21113;-92
2022/01/26 05:19:17;;;;;;;40.40;21.23;;;;;;;-6.26;100.00;101245.30;1654840;85;21183;-93
2022/01/26 05:21:46;;;;;;;39.00;21.05;;;;;;;-6.30;100.00;101243.17;1654540;85;21055;-92
2022/01/26 05:24:13;;;;;;;38.63;21.52;;;;;;;-6.31;100.00;101244.01;1641527;85;21568;-93
2022/01/26 05:26:41;;;;;;;33.88;20.25;;;;;;;-6.32;100.00;101244.02;1633769;86;21526;-93
2022/01/26 05:29:08;;;;;;;38.53;19.48;;;;;;;-6.34;100.00;101239.78;1650069;86;21563;-92
2022/01/26 05:31:35;;;;;;;41.68;22.60;;;;;;;-6.34;100.00;101247.38;1668934;84;21792;-94
2022/01/26 05:34:02;;;;;;;39.48;20.52;;;;;;;-6.34;100.00;101254.16;1685590;84;21124;-95
2022/01/26 05:36:29;;;;;;;38.67;22.07;;;;;;;-6.36;100.00;101246.95;1656678;85;21074;-95
2022/01/26 05:38:56;;;;;;;47.20;24.52;;;;;;;-6.35;100.00;101254.99;1685337;85;21042;-94
2022/01/26 05:41:23;;;;;;;49.20;24.75;;;;;;;-6.35;100.00;101244.42;1656751;85;21043;-95
2022/01/26 05:43:51;;;;;;;46.13;23.90;;;;;;;-6.35;100.00;101252.02;1682862;82;21089;-92
2022/01/26 05:46:29;;;;;;;51.50;27.60;;;;;;;-6.35;100.00;101252.45;1656320;85;21162;-95
2022/01/26 05:48:51;;;;;;;44.55;24.05;;;;;;;-6.34;100.00;101252.45;1682881;85;21034;-94
2022/01/26 05:51:18;;;;;;;46.40;24.47;;;;;;;-6.34;100.00;101254.98;1674094;84;21691;-92
2022/01/26 05:53:47;;;;;;;40.48;21.85;;;;;;;-6.34;100.00;101249.92;1642863;85;21177;-93
2022/01/26 05:56:14;;;;;;;48.68;24.07;;;;;;;-6.34;100.00;101246.12;1656928;85;21125;-91
2022/01/26 05:58:41;;;;;;;39.75;22.32;;;;;;;-6.31;100.00;101250.78;1656638;85;21070;-92
2022/01/26 06:01:09;;;;;;;40.28;21.90;;;;;;;-6.29;100.00;101247.84;1633943;85;21038;-92
2022/01/26 06:03:36;;;;;;;44.15;22.95;;;;;;;-6.27;100.00;101246.14;1633434;85;21058;-92
2022/01/26 06:06:03;;;;;;;40.75;21.10;;;;;;;-6.23;100.00;101246.59;1656883;84;21027;-93
2022/01/26 06:08:32;;;;;;;38.20;19.40;;;;;;;-6.20;100.00;101240.25;1656632;85;21167;-90
2022/01/26 06:11:00;;;;;;;44.48;21.40;;;;;;;-6.20;100.00;101241.12;1656896;85;21054;-91
2022/01/26 06:13:27;;;;;;;41.58;21.17;;;;;;;-6.17;100.00;101240.71;1633694;85;21090;-93
2022/01/26 06:15:56;;;;;;;45.45;20.80;;;;;;;-6.14;100.00;101230.16;1633618;85;21042;-93
2022/01/26 06:18:23;;;;;;;38.15;19.27;;;;;;;-6.11;100.00;101229.32;1634095;85;21083;-95
2022/01/26 06:20:51;;;;;;;42.73;21.07;;;;;;;-6.05;100.00;101229.33;1657076;85;21202;-93
2022/01/26 06:23:24;;;;;;;33.48;17.50;;;;;;;-5.97;100.00;101222.56;1656862;85;21089;-93
2022/01/26 06:25:49;;;;;;;26.42;14.95;;;;;;;-5.90;100.00;101223.00;1632932;86;21125;-89
2022/01/26 06:28:17;;;;;;;27.22;13.88;;;;;;;-5.81;100.00;101223.87;1656913;86;21045;-91
2022/01/26 06:30:52;;;;;;;23.27;11.50;;;;;;;-5.77;100.00;101226.42;1656949;85;21511;-91
2022/01/26 06:33:15;;;;;;;19.77;10.95;;;;;;;-5.74;100.00;101217.97;1634017;84;23358;-91
2022/01/26 06:35:44;;;;;;;18.20;10.58;;;;;;;-5.71;100.00;101219.25;1633759;85;21508;-91
2022/01/26 06:38:11;;;;;;;20.52;11.18;;;;;;;-5.70;100.00;101215.44;1657063;84;21046;-92
2022/01/26 06:40:38;;;;;;;22.48;12.30;;;;;;;-5.67;100.00;101220.11;1657075;84;21614;-91
2022/01/26 06:43:10;;;;;;;20.48;11.45;;;;;;;-5.64;100.00;101215.88;1661922;84;21038;-91
2022/01/26 06:45:39;;;;;;;22.58;11.90;;;;;;;-5.59;100.00;101222.23;1682368;84;21352;-91
2022/01/26 06:50:40;;;;;;;24.82;13.68;;;;;;;-5.50;100.00;101217.17;1661935;85;21130;-91
2022/01/26 06:53:07;;;;;;;27.27;14.50;;;;;;;-5.44;100.00;101213.77;1661855;84;21106;-91
2022/01/26 06:55:37;;;;;;;21.52;12.23;;;;;;;-5.39;100.00;101221.82;1675989;84;21008;-92
2022/01/26 06:58:04;;;;;;;27.40;14.18;;;;;;;-5.31;100.00;101217.16;1667772;84;21786;-92
2022/01/26 07:00:32;;;;;;;24.15;13.05;;;;;;;-5.23;100.00;101221.83;1645736;84;21153;-92
2022/01/26 07:02:59;;;;;;;28.32;13.58;;;;;;;-5.19;100.00;101220.13;1650669;85;21127;-94
2022/01/26 07:05:26;;;;;;;18.77;11.53;;;;;;;-5.18;100.00;101218.88;1658432;84;21536;-90
2022/01/26 07:07:54;;;;;;;20.90;11.55;;;;;;;-5.16;100.00;101204.47;1632918;84;21580;-91
2022/01/26 07:10:22;;;;;;;19.10;10.82;;;;;;;-5.13;100.00;101208.72;1655985;84;22471;-95
2022/01/26 07:12:49;;;;;;;18.80;11.45;;;;;;;-5.12;100.00;101201.09;1656612;86;21600;-90
2022/01/26 07:23:41;;;;;;;22.05;12.13;;;;;;;-4.87;100.00;101202.34;1632461;84;21632;-92
2022/01/26 07:26:09;;;;;;;20.88;11.83;;;;;;;-4.90;100.00;101195.98;1630573;87;21059;-91
2022/01/26 07:28:38;;;;;;;22.73;11.78;;;;;;;-4.94;100.00;101197.67;1630688;87;21119;-93
2022/01/26 07:31:06;;;;;;;25.92;14.18;;;;;;;-4.96;100.00;101195.99;1608321;87;21166;-91
2022/01/26 07:33:33;;;;;;;22.13;12.75;;;;;;;-4.93;100.00;101190.92;1643254;86;21113;-91
2022/01/26 07:36:01;;;;;;;21.12;12.03;;;;;;;-4.84;100.00;101190.88;1641092;86;21063;-93
2022/01/26 07:38:28;;;;;;;22.77;12.65;;;;;;;-4.78;100.00;101198.51;1644595;86;21725;-94
2022/01/26 07:40:55;;;;;;;20.30;12.00;;;;;;;-4.74;100.00;101191.72;1643705;87;21062;-91
2022/01/26 07:43:22;;;;;;;22.15;12.05;;;;;;;-4.73;100.00;101191.28;1641128;86;21082;-90
2022/01/26 07:45:49;;;;;;;20.70;12.40;;;;;;;-4.72;100.00;101194.25;1644157;86;21050;-91
2022/01/26 07:48:16;;;;;;;23.22;12.60;;;;;;;-4.68;100.00;101199.73;1641252;86;21670;-93
2022/01/26 07:50:45;;;;;;;22.15;12.75;;;;;;;-4.65;100.00;101201.88;1641119;86;21011;-93
2022/01/26 07:53:16;;;;;;;23.22;12.23;;;;;;;-4.65;100.00;101199.33;1644123;87;21177;-91
2022/01/26 07:55:41;;;;;;;25.65;13.45;;;;;;;-4.61;100.00;101192.54;1643766;86;21130;-92
2022/01/26 07:58:11;;;;;;;27.67;14.18;;;;;;;-4.64;100.00;101193.81;1644495;86;21632;-91
2022/01/26 08:00:38;;;;;;;22.98;12.58;;;;;;;-4.61;100.00;101199.73;1641156;86;21137;-93
2022/01/26 08:03:05;;;;;;;20.27;10.85;;;;;;;-4.57;100.00;101198.02;1645013;87;21046;-92
2022/01/26 08:05:32;;;;;;;22.10;12.63;;;;;;;-4.55;100.00;101192.52;1641681;86;21074;-93
2022/01/26 08:08:00;;;;;;;23.65;12.98;;;;;;;-4.51;100.00;101196.72;1644261;87;21074;-94
2022/01/26 08:10:27;;;;;;;24.00;13.35;;;;;;;-4.46;100.00;101196.71;1644020;86;21126;-92
2022/01/26 08:12:55;;;;;;;22.80;12.95;;;;;;;-4.38;100.00;101200.07;1644138;86;21129;-90
2022/01/26 08:15:25;;;;;;;25.17;13.53;;;;;;;-4.29;100.00;101203.02;1641726;87;21185;-92
2022/01/26 08:17:53;;;;;;;23.73;14.07;;;;;;;-4.19;100.00;101203.82;1644309;86;21580;-95
2022/01/26 08:20:22;;;;;;;22.98;13.58;;;;;;;-4.08;100.00;101208.86;1643901;86;21592;-92
2022/01/26 08:22:51;;;;;;;24.65;14.87;;;;;;;-4.08;100.00;101199.51;1641744;86;21137;-94
2022/01/26 08:25:21;;;;;;;23.90;14.23;;;;;;;-4.03;100.00;101197.81;1644170;87;21201;-95
2022/01/26 08:27:56;;;;;;;26.07;14.03;;;;;;;-3.93;100.00;101204.13;1644167;86;21774;-95
2022/01/26 08:30:19;;;;;;;26.73;14.50;;;;;;;-3.88;100.00;101204.49;1644033;86;21109;-95
2022/01/26 08:32:46;;;;;;;24.07;13.85;;;;;;;-3.85;100.00;101197.30;1650662;86;21058;-95
2022/01/26 08:35:14;;;;;;;23.80;13.98;;;;;;;-3.85;100.00;101191.77;1658081;86;21019;-94
2022/01/26 08:37:41;;;;;;;24.18;13.90;;;;;;;-3.81;100.00;101194.72;1658075;86;21549;-94
2022/01/26 08:40:10;;;;;;;22.77;13.58;;;;;;;-3.74;100.00;101198.49;1658102;86;21441;-94
2022/01/26 08:42:41;;;;;;;28.87;13.13;;;;;;;-3.68;100.00;101195.46;1657649;86;21090;-94
2022/01/26 08:45:08;;;;;;;22.02;12.45;;;;;;;-3.62;100.00;101197.13;1658362;86;21066;-93
2022/01/26 08:47:37;;;;;;;22.20;12.47;;;;;;;-3.54;100.00;101194.09;1658049;86;21042;-93
2022/01/26 08:50:06;;;;;;;25.68;13.62;;;;;;;-3.47;100.00;101192.77;1662929;84;22672;-94
2022/01/26 08:52:34;;;;;;;20.65;12.40;;;;;;;-3.41;100.00;101192.75;1654908;85;21548;-94
2022/01/26 08:55:03;;;;;;;22.55;13.03;;;;;;;-3.26;100.00;101184.98;1662346;84;21050;-93
2022/01/26 08:57:31;;;;;;;24.60;13.22;;;;;;;-3.17;100.00;101187.87;1656770;86;21138;-92
2022/01/26 08:59:59;;;;;;;22.52;12.85;;;;;;;-3.12;100.00;101191.65;1656407;86;21125;-91
2022/01/26 09:02:26;;;;;;;22.62;12.68;;;;;;;-3.08;100.00;101186.92;1701933;83;21159;-91
2022/01/26 09:04:54;;;;;;;27.07;14.35;;;;;;;-3.02;100.00;101179.25;1685959;84;21098;-92
2022/01/26 09:07:22;;;;;;;24.47;14.38;;;;;;;-2.93;100.00;101179.58;1655973;84;21058;-94
2022/01/26 09:09:54;;;;;;;25.32;15.00;;;;;;;-2.79;100.00;101170.52;1674031;83;21046;-95
2022/01/26 09:12:23;;;;;;;24.87;14.40;;;;;;;-2.70;100.00;101169.98;1707554;83;21610;-95
2022/01/26 09:14:50;;;;;;;24.12;14.03;;;;;;;-2.69;100.00;101173.39;1658077;83;21393;-92
2022/01/26 09:17:18;;;;;;;26.42;15.23;;;;;;;-2.66;100.00;101172.06;1657881;85;21073;-92
2022/01/26 09:19:47;;;;;;;27.85;15.48;;;;;;;-2.65;100.00;101166.55;1660288;85;21535;-94
2022/01/26 09:22:17;;;;;;;28.42;15.70;;;;;;;-2.67;100.00;101173.36;1685847;84;21557;-93
2022/01/26 09:24:45;;;;;;;31.30;18.07;;;;;;;-2.65;100.00;101169.10;1662060;84;20956;-94
2022/01/26 09:27:16;;;;;;;29.02;16.45;;;;;;;-2.59;100.00;101167.75;1688006;83;21050;-95
2022/01/26 09:29:47;;;;;;;30.35;17.07;;;;;;;-2.57;100.00;101166.86;1693112;83;21520;-94
2022/01/26 09:32:15;;;;;;;33.60;18.70;;;;;;;-2.57;100.00;101168.14;1636328;85;21077;-94
2022/01/26 09:34:44;;;;;;;29.85;16.93;;;;;;;-2.49;100.00;101165.51;1663219;85;21066;-94
2022/01/26 09:37:16;;;;;;;31.75;17.52;;;;;;;-2.40;100.00;101168.37;1686326;85;21085;-93
2022/01/26 09:39:46;;;;;;;34.88;19.37;;;;;;;-2.35;100.00;101167.03;1651829;85;21119;-94
2022/01/26 09:42:17;;;;;;;39.58;20.75;;;;;;;-2.33;100.00;101159.77;1678413;85;21054;-95
2022/01/26 09:44:44;;;;;;;;;;;;;;;-2.29;100.00;101152.51;1631948;88;21575;-93
2022/01/26 09:47:12;;;;;;;37.03;19.62;;;;;;;-2.22;100.00;101153.25;1629735;88;20342;-95
2022/01/26 09:49:40;;;;;;;34.83;18.00;;;;;;;-2.24;100.00;101150.73;1686454;85;21112;-95
2022/01/26 09:52:20;;;;;;;33.05;18.98;;;;;;;-2.29;100.00;101149.95;1686074;85;21591;-94
2022/01/26 09:54:43;;;;;;;33.63;18.40;;;;;;;-2.27;100.00;101151.20;1643199;83;21118;-95
2022/01/26 09:57:11;;;;;;;37.20;20.32;;;;;;;-2.30;100.00;101150.81;1683981;85;21654;-93
2022/01/26 09:59:38;;;;;;;42.25;24.77;;;;;;;-2.30;100.00;101152.09;1684506;85;21615;-94
2022/01/26 10:02:05;;;;;;;38.40;21.65;;;;;;;-2.35;100.00;101150.02;1652979;85;21066;-94
2022/01/26 10:04:38;;;;;;;36.60;21.37;;;;;;;-2.35;100.00;101143.63;1628925;86;21151;-93
2022/01/26 10:07:26;;;;;;;37.83;20.90;;;;;;;-2.30;100.00;101139.34;1627560;86;21549;-96
2022/01/26 10:15:32;;;;;;;34.90;21.00;;;;;;;-2.36;100.00;101131.73;1648744;87;21043;-95
2022/01/26 10:18:17;;;;;;;36.13;20.92;;;;;;;-2.29;100.00;101132.09;1657488;84;21981;-95
2022/01/26 10:20:51;;;;;;;35.17;20.68;;;;;;;-2.23;100.00;101134.56;1634152;87;21056;-91
2022/01/26 10:23:40;;;;;;;37.00;20.97;;;;;;;-2.14;100.00;101122.53;1664151;84;21108;-92
2022/01/26 10:26:15;;;;;;;39.08;20.55;;;;;;;-2.03;100.00;101119.38;1664595;84;21050;-91
2022/01/26 10:28:52;;;;;;;40.45;22.62;;;;;;;-1.96;100.00;101118.87;1685134;84;21069;-93
2022/01/26 10:31:28;;;;;;;39.27;21.70;;;;;;;-2.00;100.00;101113.41;1685651;85;21200;-93
2022/01/26 10:34:26;;;;;;;36.83;20.88;;;;;;;-2.05;100.00;101113.48;1641591;86;21070;-91
2022/01/26 10:36:54;;;;;;;50.43;24.77;;;;;;;-1.93;100.00;101112.00;1649181;85;21170;-87
2022/01/26 10:43:08;;;;;;;82.88;29.57;;;;;;;-1.50;100.00;101098.14;1685643;85;21141;-86
2022/01/26 10:48:41;;;;;;;49.08;26.68;;;;;;;-1.29;100.00;101092.64;1683504;85;21528;-91
2022/01/26 10:51:32;;;;;;;49.75;27.75;;;;;;;-1.71;100.00;101093.78;1635627;85;21603;-93
2022/01/26 10:53:44;;;;;;;46.92;26.05;;;;;;;-2.20;100.00;101102.22;1655691;85;21069;-93
2022/01/26 10:56:11;;;;;;;53.52;25.27;;;;;;;-2.59;100.00;101104.00;1658964;85;21038;-93
2022/01/26 10:58:41;;;;;;;49.80;26.30;;;;;;;-2.80;100.00;101105.09;1685669;84;21122;-91
2022/01/26 11:01:08;;;;;;;42.17;24.15;;;;;;;-2.94;100.00;101101.42;1685303;85;21057;-92
2022/01/26 11:03:35;;;;;;;55.30;25.88;;;;;;;-3.18;100.00;101108.05;1684103;85;21054;-91
2022/01/26 11:06:05;;;;;;;44.65;23.83;;;;;;;-3.35;100.00;101103.55;1683855;84;21061;-93
2022/01/26 11:08:39;;;;;;;40.35;23.02;;;;;;;-3.45;100.00;101105.34;1684087;84;21065;-94
2022/01/26 11:11:06;;;;;;;38.10;22.25;;;;;;;-3.52;100.00;101099.87;1662648;85;21100;-91
2022/01/26 11:13:39;;;;;;;44.30;23.07;;;;;;;-3.54;100.00;101102.88;1683587;85;21157;-95
2022/01/26 11:16:12;;;;;;;54.58;22.65;;;;;;;-3.48;100.00;101100.27;1684178;84;21050;-92
2022/01/26 11:18:51;;;;;;;39.00;21.02;;;;;;;-3.36;100.00;101099.31;1640684;85;21056;-94
2022/01/26 11:21:35;;;;;;;42.33;21.90;;;;;;;-3.26;100.00;101095.83;1682989;85;21010;-90
2022/01/26 11:24:19;;;;;;;36.70;20.08;;;;;;;-3.13;100.00;101089.31;1664201;85;21115;-93
2022/01/26 11:26:49;;;;;;;38.02;20.10;;;;;;;-3.01;100.00;101093.02;1652315;86;21016;-91
2022/01/26 11:29:24;;;;;;;49.90;24.75;;;;;;;-2.95;100.00;101095.49;1661804;84;21022;-91
2022/01/26 11:32:19;;;;;;;43.30;24.40;;;;;;;-2.87;100.00;101091.56;1640148;86;21538;-93
2022/01/26 11:34:56;;;;;;;42.23;24.25;;;;;;;-2.78;100.00;101088.91;1635183;85;21061;-92
2022/01/26 11:37:45;;;;;;;44.93;23.77;;;;;;;-2.71;100.00;101082.05;1663634;85;21164;-89
2022/01/26 11:46:33;;;;;;;52.98;26.25;;;;;;;-2.60;100.00;101077.63;1632378;86;21160;-92
2022/01/26 11:49:06;;;;;;;52.90;28.92;;;;;;;-2.58;100.00;101082.29;1627375;87;21119;-92
2022/01/26 11:51:47;;;;;;;52.88;30.70;;;;;;;-2.57;100.00;101081.88;1610665;87;21180;-92
2022/01/26 11:54:23;;;;;;;52.53;31.05;;;;;;;-2.66;100.00;101085.37;1650559;85;21580;-92
2022/01/26 11:57:13;;;;;;;54.85;29.65;;;;;;;-2.81;100.00;101085.56;1644020;86;21112;-90
2022/01/26 11:59:45;;;;;;;53.17;32.08;;;;;;;-2.96;100.00;101087.43;1650689;85;21113;-93
2022/01/26 12:02:33;;;;;;;57.90;32.88;;;;;;;-3.01;100.00;101084.10;1648912;85;21301;-92
2022/01/26 12:05:05;;;;;;;58.73;33.10;;;;;;;-3.11;100.00;101087.60;1624763;85;21755;-94
2022/01/26 12:07:32;;;;;;;69.47;34.65;;;;;;;-3.23;100.00;101087.30;1633272;86;21152;-93
2022/01/26 12:10:03;;;;;;;68.42;38.50;;;;;;;-3.31;100.00;101087.36;1651803;85;21014;-92
2022/01/26 12:12:35;;;;;;;75.10;40.58;;;;;;;-3.35;100.00;101087.83;1644768;86;21100;-93
2022/01/26 12:15:05;;;;;;;75.10;39.80;;;;;;;-3.41;100.00;101093.43;1655431;85;21031;-92
2022/01/26 12:17:38;;;;;;;70.32;38.33;;;;;;;-3.44;100.00;101090.89;1628490;85;21138;-93
2022/01/26 12:32:04;;;;;;;63.20;37.05;;;;;;;-3.39;100.00;101092.96;1634964;86;21039;-93
2022/01/26 12:38:48;;;;;;;56.20;33.53;;;;;;;-3.34;100.00;101083.15;1633751;83;21353;-92
2022/01/26 12:41:25;;;;;;;62.30;34.90;;;;;;;-3.36;100.00;101081.48;1696163;83;21066;-93
2022/01/26 12:43:55;;;;;;;56.75;33.35;;;;;;;-3.43;100.00;101080.69;1691081;83;21145;-93
2022/01/26 12:46:27;;;;;;;56.88;30.20;;;;;;;-3.45;100.00;101079.02;1682550;85;21042;-94
2022/01/26 12:49:07;;;;;;;59.60;31.73;;;;;;;-3.43;100.00;101092.59;1649080;86;21577;-94
2022/01/26 12:51:48;;;;;;;47.05;26.40;;;;;;;-3.42;100.00;101082.82;1668011;85;21085;-95
2022/01/26 12:57:49;;;;;;;47.00;25.97;;;;;;;-3.42;100.00;101088.75;1641287;86;21666;-94
2022/01/26 13:00:18;;;;;;;44.23;26.02;;;;;;;-3.41;100.00;101087.06;1630250;86;21069;-94
2022/01/26 13:02:45;;;;;;;51.33;29.30;;;;;;;-3.43;100.00;101091.31;1659853;86;21115;-93
2022/01/26 13:05:15;;;;;;;53.20;30.35;;;;;;;-3.43;100.00;101088.77;1672874;84;21035;-93
2022/01/26 13:07:45;;;;;;;47.57;28.13;;;;;;;-3.44;100.00;101086.64;1663000;85;21128;-95
2022/01/26 13:10:17;;;;;;;51.28;30.80;;;;;;;-3.43;100.00;101089.60;1626757;86;21365;-94
2022/01/26 13:12:45;;;;;;;59.75;33.95;;;;;;;-3.41;100.00;101084.07;1650710;85;21083;-94
2022/01/26 13:15:20;;;;;;;52.98;29.35;;;;;;;-3.36;100.00;101088.68;1647175;86;21064;-92
2022/01/26 13:17:47;;;;;;;75.95;27.35;;;;;;;-3.21;100.00;101090.24;1652743;85;21060;-86
2022/01/26 13:20:23;;;;;;;74.72;29.23;;;;;;;-3.17;100.00;101084.27;1648696;86;21954;-86
2022/01/26 13:23:50;;;;;;;62.98;29.02;;;;;;;-2.72;100.00;101088.83;1628533;86;21916;-91
2022/01/26 13:31:32;;;;;;;55.15;29.42;;;;;;;-2.32;100.00;101106.61;1633667;86;20225;-95
2022/01/26 13:52:24;;;;;;;49.25;27.77;;;;;;;-3.43;100.00;101124.42;1638511;84;21063;-91
2022/01/26 14:00:13;;;;;;;45.73;25.65;;;;;;;-3.77;100.00;101123.42;1700655;83;21113;-91
2022/01/26 14:02:41;;;;;;;46.08;25.77;;;;;;;-4.00;100.00;101122.72;1644800;83;21033;-89